createdAt,value
2019-03-29T00:02:02.095Z,102216.34
2019-03-29T00:04:28.638Z,102223.33
2019-03-29T00:06:55.297Z,102216.53
2019-03-29T00:09:21.862Z,102219.45
2019-03-29T00:11:48.544Z,102223.27
2019-03-29T00:14:15.938Z,102226.95
2019-03-29T00:16:43.167Z,102220.51
2019-03-29T00:19:09.802Z,102230.64
2019-03-29T00:21:36.638Z,102223.05
2019-03-29T00:24:07.112Z,102232.64
2019-03-29T00:26:31.838Z,102222.30
2019-03-29T00:28:58.376Z,102228.88
2019-03-29T00:31:25.133Z,102228.07
2019-03-29T00:33:51.795Z,102228.52
2019-03-29T00:36:18.590Z,102221.67
2019-03-29T00:38:45.176Z,102216.83
2019-03-29T00:41:11.743Z,102220.22
2019-03-29T00:43:38.337Z,102216.06
2019-03-29T00:46:04.951Z,102222.19
2019-03-29T00:48:31.527Z,102215.52
2019-03-29T00:50:59.007Z,102219.16
2019-03-29T00:53:26.089Z,102231.63
2019-03-29T00:55:52.662Z,102228.50
2019-03-29T00:58:19.242Z,102235.88
2019-03-29T01:00:46.139Z,102227.06
2019-03-29T01:03:12.797Z,102228.50
2019-03-29T01:05:39.547Z,102218.78
2019-03-29T01:08:08.274Z,102218.41
2019-03-29T01:10:36.967Z,102213.52
2019-03-29T01:13:03.657Z,102217.68
2019-03-29T01:15:30.242Z,102214.16
2019-03-29T01:17:57.114Z,102212.09
2019-03-29T01:20:23.787Z,102214.52
2019-03-29T01:22:50.424Z,102219.55
2019-03-29T01:25:17.050Z,102217.81
2019-03-29T01:27:43.660Z,102211.44
2019-03-29T01:30:12.416Z,102215.39
2019-03-29T01:32:39.030Z,102213.58
2019-03-29T01:35:06.939Z,102215.22
2019-03-29T01:37:33.893Z,102209.13
2019-03-29T01:40:00.434Z,102214.34
2019-03-29T01:42:27.027Z,102217.59
2019-03-29T01:44:54.771Z,102214.69
2019-03-29T01:47:21.402Z,102224.80
2019-03-29T01:49:48.004Z,102223.06
2019-03-29T01:52:14.657Z,102219.57
2019-03-29T01:54:41.302Z,102219.48
2019-03-29T01:57:07.925Z,102219.48
2019-03-29T01:59:34.641Z,102210.95
2019-03-29T02:02:01.470Z,102216.08
2019-03-29T02:04:28.039Z,102217.16
2019-03-29T02:06:54.732Z,102216.63
2019-03-29T02:09:21.339Z,102215.02
2019-03-29T02:11:48.124Z,102215.86
2019-03-29T02:14:14.784Z,102217.34
2019-03-29T02:16:42.763Z,102214.34
2019-03-29T02:19:09.334Z,102210.14
2019-03-29T02:21:36.214Z,102206.31
2019-03-29T02:24:04.185Z,102201.70
2019-03-29T02:26:30.752Z,102189.98
2019-03-29T02:28:57.341Z,102194.19
2019-03-29T02:31:26.079Z,102203.19
2019-03-29T02:33:52.485Z,102200.66
2019-03-29T02:36:19.063Z,102202.25
2019-03-29T02:38:54.987Z,102197.28
2019-03-29T02:41:15.581Z,102198.67
2019-03-29T02:43:42.507Z,102195.27
2019-03-29T02:46:09.196Z,102188.28
2019-03-29T02:48:36.310Z,102189.33
2019-03-29T02:51:04.379Z,102181.91
2019-03-29T02:53:31.355Z,102179.53
2019-03-29T02:55:57.974Z,102168.79
2019-03-29T02:58:24.658Z,102164.94
2019-03-29T03:00:51.258Z,102156.33
2019-03-29T03:03:18.003Z,102135.84
2019-03-29T03:05:44.708Z,102135.15
2019-03-29T03:08:11.535Z,102128.09
2019-03-29T03:10:38.221Z,102121.81
2019-03-29T03:13:04.922Z,102138.86
2019-03-29T03:15:31.550Z,102134.08
2019-03-29T03:17:58.232Z,102133.27
2019-03-29T03:20:24.906Z,102141.09
2019-03-29T03:22:51.620Z,102151.13
2019-03-29T03:25:18.255Z,102156.98
2019-03-29T03:27:44.800Z,102157.73
2019-03-29T03:30:12.410Z,102155.63
2019-03-29T03:32:39.258Z,102154.48
2019-03-29T03:35:08.586Z,102164.77
2019-03-29T03:37:36.724Z,102171.61
2019-03-29T03:40:07.423Z,102165.87
2019-03-29T03:42:34.167Z,102168.57
2019-03-29T03:45:00.819Z,102165.92
2019-03-29T03:47:27.869Z,102163.98
2019-03-29T03:49:54.510Z,102161.34
2019-03-29T03:52:21.448Z,102151.67
2019-03-29T03:54:48.320Z,102143.13
2019-03-29T03:57:18.022Z,102157.83
2019-03-29T03:59:45.096Z,102150.75
2019-03-29T04:02:11.792Z,102163.17
2019-03-29T04:04:38.637Z,102165.23
2019-03-29T04:07:05.589Z,102151.08
2019-03-29T04:09:48.411Z,102151.97
2019-03-29T04:12:00.943Z,102155.71
2019-03-29T04:14:27.527Z,102149.95
2019-03-29T04:16:54.128Z,102152.97
2019-03-29T04:19:20.822Z,102150.34
2019-03-29T04:21:48.677Z,102144.44
2019-03-29T04:24:15.360Z,102141.06
2019-03-29T04:26:41.909Z,102135.34
2019-03-29T04:29:08.564Z,102139.36
2019-03-29T04:31:35.318Z,102148.72
2019-03-29T04:34:01.960Z,102153.84
2019-03-29T04:36:28.538Z,102151.76
2019-03-29T04:38:55.124Z,102153.02
2019-03-29T04:41:21.673Z,102148.19
2019-03-29T04:43:48.372Z,102145.29
2019-03-29T04:46:15.081Z,102146.26
2019-03-29T04:48:41.935Z,102146.20
2019-03-29T04:51:09.202Z,102149.02
2019-03-29T04:53:36.067Z,102155.82
2019-03-29T04:56:02.921Z,102149.73
2019-03-29T04:58:30.934Z,102147.06
2019-03-29T05:00:58.315Z,102145.32
2019-03-29T05:03:25.026Z,102154.25
2019-03-29T05:05:51.694Z,102159.28
2019-03-29T05:08:18.315Z,102163.83
2019-03-29T05:10:44.901Z,102164.11
2019-03-29T05:13:11.491Z,102167.48
2019-03-29T05:15:38.412Z,102161.44
2019-03-29T05:18:05.203Z,102160.41
2019-03-29T05:20:31.881Z,102155.28
2019-03-29T05:22:58.701Z,102157.09
2019-03-29T05:25:25.364Z,102149.86
2019-03-29T05:27:51.982Z,102150.53
2019-03-29T05:30:18.568Z,102145.63
2019-03-29T05:32:45.139Z,102166.82
2019-03-29T05:35:11.916Z,102185.06
2019-03-29T05:37:38.502Z,102193.42
2019-03-29T05:40:05.428Z,102191.97
2019-03-29T05:42:32.154Z,102196.27
2019-03-29T05:44:58.705Z,102184.97
2019-03-29T05:47:25.311Z,102184.08
2019-03-29T05:49:51.890Z,102185.53
2019-03-29T05:52:18.449Z,102186.00
2019-03-29T05:54:45.049Z,102176.27
2019-03-29T05:57:11.596Z,102176.14
2019-03-29T05:59:38.484Z,102175.77
2019-03-29T06:02:05.291Z,102186.34
2019-03-29T06:04:31.848Z,102190.65
2019-03-29T06:06:58.500Z,102188.37
2019-03-29T06:09:25.078Z,102188.55
2019-03-29T06:11:51.767Z,102191.97
2019-03-29T06:14:18.347Z,102197.61
2019-03-29T06:16:44.918Z,102200.27
2019-03-29T06:19:11.583Z,102199.49
2019-03-29T06:21:38.282Z,102213.24
2019-03-29T06:24:04.960Z,102202.51
2019-03-29T06:26:31.542Z,102207.06
2019-03-29T06:28:58.174Z,102201.05
2019-03-29T06:31:25.079Z,102208.55
2019-03-29T06:33:51.834Z,102213.79
2019-03-29T06:36:21.479Z,102208.64
2019-03-29T06:38:50.227Z,102207.78
2019-03-29T06:41:16.787Z,102213.88
2019-03-29T06:43:43.707Z,102215.20
2019-03-29T06:46:10.276Z,102215.63
2019-03-29T06:48:36.847Z,102219.16
2019-03-29T06:51:03.567Z,102213.92
2019-03-29T06:53:30.137Z,102205.61
2019-03-29T06:55:59.339Z,102201.23
2019-03-29T06:58:25.216Z,102202.50
2019-03-29T07:00:51.908Z,102203.37
2019-03-29T07:03:19.030Z,102192.41
2019-03-29T07:05:45.869Z,102179.20
2019-03-29T07:08:12.412Z,102171.32
2019-03-29T07:10:39.218Z,102177.96
2019-03-29T07:13:05.775Z,102167.02
2019-03-29T07:15:32.448Z,102168.55
2019-03-29T07:17:59.018Z,102161.57
2019-03-29T07:20:25.584Z,102177.62
2019-03-29T07:22:52.240Z,102172.78
2019-03-29T07:25:18.784Z,102170.64
2019-03-29T07:27:52.085Z,102173.09
2019-03-29T07:30:15.526Z,102161.12
2019-03-29T07:32:42.110Z,102175.58
2019-03-29T07:35:08.994Z,102168.18
2019-03-29T07:37:35.797Z,102173.90
2019-03-29T07:40:03.550Z,102170.44
2019-03-29T07:42:30.258Z,102175.30
2019-03-29T07:44:57.324Z,102177.97
2019-03-29T07:47:23.915Z,102172.83
2019-03-29T07:49:50.583Z,102180.62
2019-03-29T07:52:17.205Z,102180.70
2019-03-29T07:54:43.883Z,102182.93
2019-03-29T07:57:13.462Z,102175.45
2019-03-29T07:59:42.069Z,102169.23
2019-03-29T08:02:08.919Z,102160.97
2019-03-29T08:04:35.668Z,102164.50
2019-03-29T08:07:02.238Z,102169.67
2019-03-29T08:09:28.785Z,102166.91
2019-03-29T08:11:55.708Z,102159.95
2019-03-29T08:14:22.374Z,102166.66
2019-03-29T08:16:49.206Z,102157.02
2019-03-29T08:19:15.844Z,102159.52
2019-03-29T08:21:42.625Z,102156.34
2019-03-29T08:24:09.299Z,102152.34
2019-03-29T08:26:36.143Z,102149.28
2019-03-29T08:29:03.253Z,102145.30
2019-03-29T08:31:29.994Z,102143.22
2019-03-29T08:33:56.643Z,102147.59
2019-03-29T08:36:23.480Z,102141.89
2019-03-29T08:38:50.238Z,102155.95
2019-03-29T08:41:16.995Z,102152.00
2019-03-29T08:43:43.853Z,102147.53
2019-03-29T08:46:10.784Z,102150.91
2019-03-29T08:48:37.591Z,102141.94
2019-03-29T08:51:04.486Z,102130.95
2019-03-29T08:53:31.164Z,102123.50
2019-03-29T08:55:57.715Z,102129.93
2019-03-29T08:58:24.302Z,102130.56
2019-03-29T09:00:51.423Z,102129.59
2019-03-29T09:03:18.302Z,102120.16
2019-03-29T09:05:46.026Z,102126.23
2019-03-29T09:08:13.639Z,102128.80
2019-03-29T09:10:40.319Z,102140.03
2019-03-29T09:13:07.006Z,102126.95
2019-03-29T09:15:33.763Z,102127.48
2019-03-29T09:18:00.378Z,102133.66
2019-03-29T09:20:27.094Z,102131.08
2019-03-29T09:22:53.740Z,102133.62
2019-03-29T09:25:21.168Z,102126.55
2019-03-29T09:27:49.486Z,102132.02
2019-03-29T09:30:16.330Z,102127.52
2019-03-29T09:32:43.220Z,102123.77
2019-03-29T09:35:11.923Z,102118.42
2019-03-29T09:37:38.689Z,102115.09
2019-03-29T09:40:06.003Z,102117.28
2019-03-29T09:42:32.850Z,102114.86
2019-03-29T09:44:59.465Z,102117.00
2019-03-29T09:47:26.085Z,102128.41
2019-03-29T09:49:52.652Z,102118.72
2019-03-29T09:52:20.793Z,102118.63
2019-03-29T09:54:49.253Z,102108.95
2019-03-29T09:57:15.988Z,102106.92
2019-03-29T09:59:42.684Z,102106.08
2019-03-29T10:02:09.440Z,102098.66
2019-03-29T10:04:36.112Z,102101.16
2019-03-29T10:07:02.810Z,102101.27
2019-03-29T10:09:29.498Z,102100.52
2019-03-29T10:11:57.198Z,102089.00
2019-03-29T10:14:23.884Z,102095.83
2019-03-29T10:16:50.620Z,102100.27
2019-03-29T10:19:17.198Z,102098.48
2019-03-29T10:21:43.784Z,102094.50
2019-03-29T10:24:10.343Z,102096.22
2019-03-29T10:26:36.943Z,102095.19
2019-03-29T10:29:03.639Z,102087.94
2019-03-29T10:31:32.541Z,102081.84
2019-03-29T10:33:58.834Z,102078.41
2019-03-29T10:36:25.641Z,102078.02
2019-03-29T10:38:52.357Z,102086.62
2019-03-29T10:41:22.631Z,102083.25
2019-03-29T10:43:47.617Z,102085.49
2019-03-29T10:46:14.237Z,102077.44
2019-03-29T10:48:40.924Z,102068.09
2019-03-29T10:51:08.743Z,102069.38
2019-03-29T10:53:35.445Z,102067.83
2019-03-29T10:56:02.665Z,102068.52
2019-03-29T10:58:29.511Z,102059.58
2019-03-29T11:00:56.049Z,102058.84
2019-03-29T11:03:22.745Z,102061.02
2019-03-29T11:05:49.338Z,102058.06
2019-03-29T11:08:16.088Z,102057.79
2019-03-29T11:10:43.875Z,102049.78
2019-03-29T11:13:13.912Z,102052.14
2019-03-29T11:15:39.279Z,102055.55
2019-03-29T11:18:06.801Z,102045.53
2019-03-29T11:20:33.626Z,102058.52
2019-03-29T11:23:00.620Z,102040.70
2019-03-29T11:25:27.174Z,102037.19
2019-03-29T11:27:55.908Z,102033.44
2019-03-29T11:30:22.675Z,102023.99
2019-03-29T11:32:49.420Z,102017.16
2019-03-29T11:35:16.158Z,102036.11
2019-03-29T11:37:42.727Z,102031.05
2019-03-29T11:40:11.528Z,102029.21
2019-03-29T11:42:38.272Z,102030.57
2019-03-29T11:45:05.264Z,102029.97
2019-03-29T11:47:31.846Z,102031.52
2019-03-29T11:49:58.632Z,102027.03
2019-03-29T11:52:26.832Z,102027.63
2019-03-29T11:54:53.436Z,102018.91
2019-03-29T11:58:16.678Z,102014.25
2019-03-29T12:00:44.248Z,102019.06
2019-03-29T12:03:11.417Z,102023.92
2019-03-29T12:05:38.286Z,102026.87
2019-03-29T12:08:05.437Z,102017.88
2019-03-29T12:10:32.611Z,102017.02
2019-03-29T12:12:59.560Z,102017.36
2019-03-29T12:15:29.424Z,102017.84
2019-03-29T12:17:56.140Z,102010.20
2019-03-29T12:20:24.454Z,102011.58
2019-03-29T12:22:51.209Z,102006.12
2019-03-29T12:25:18.185Z,102005.34
2019-03-29T12:27:44.746Z,102000.96
2019-03-29T12:30:23.693Z,101996.06
2019-03-29T12:32:40.721Z,101993.16
2019-03-29T12:35:10.069Z,101995.22
2019-03-29T12:37:36.440Z,101989.03
2019-03-29T12:40:06.133Z,101986.11
2019-03-29T12:42:32.866Z,101984.26
2019-03-29T12:44:59.469Z,101983.66
2019-03-29T12:47:26.296Z,101979.83
2019-03-29T12:49:52.896Z,101974.02
2019-03-29T12:52:19.714Z,101976.89
2019-03-29T12:54:46.333Z,101971.70
2019-03-29T12:57:13.082Z,101967.06
2019-03-29T12:59:39.659Z,101970.95
2019-03-29T13:02:09.129Z,101958.03
2019-03-29T13:04:36.015Z,101952.93
2019-03-29T13:07:03.120Z,101948.43
2019-03-29T13:09:29.674Z,101946.39
2019-03-29T13:11:56.500Z,101947.14
2019-03-29T13:14:23.136Z,101938.40
2019-03-29T13:16:49.681Z,101943.59
2019-03-29T13:19:16.269Z,101943.17
2019-03-29T13:21:42.840Z,101929.63
2019-03-29T13:24:09.529Z,101935.37
2019-03-29T13:26:36.288Z,101933.41
2019-03-29T13:29:03.479Z,101928.36
2019-03-29T13:31:30.054Z,101925.33
2019-03-29T13:33:56.631Z,101920.67
2019-03-29T13:36:23.319Z,101921.66
2019-03-29T13:38:49.989Z,101912.93
2019-03-29T13:41:16.657Z,101912.08
2019-03-29T13:43:43.263Z,101918.88
2019-03-29T13:46:09.867Z,101906.97
2019-03-29T13:48:36.501Z,101906.13
2019-03-29T13:51:03.363Z,101910.69
2019-03-29T13:53:30.107Z,101902.33
2019-03-29T13:55:57.066Z,101906.16
2019-03-29T13:58:23.703Z,101908.20
2019-03-29T14:00:50.406Z,101908.82
2019-03-29T14:03:17.044Z,101902.45
2019-03-29T14:05:45.116Z,101907.73
2019-03-29T14:08:12.094Z,101901.64
2019-03-29T14:10:39.124Z,101905.08
2019-03-29T14:13:06.055Z,101897.87
2019-03-29T14:15:32.977Z,101898.11
2019-03-29T14:17:59.705Z,101892.23
2019-03-29T14:20:30.362Z,101891.14
2019-03-29T14:22:59.682Z,101887.27
2019-03-29T14:25:26.416Z,101890.00
2019-03-29T14:27:53.132Z,101880.68
2019-03-29T14:30:20.046Z,101880.52
2019-03-29T14:32:46.638Z,101879.28
2019-03-29T14:35:13.474Z,101882.20
2019-03-29T14:37:40.208Z,101879.80
2019-03-29T14:40:07.879Z,101888.39
2019-03-29T14:42:35.207Z,101885.77
2019-03-29T14:45:05.307Z,101883.53
2019-03-29T14:47:41.198Z,101878.24
2019-03-29T14:50:00.569Z,101880.89
2019-03-29T14:52:27.162Z,101879.09
2019-03-29T14:54:53.794Z,101878.68
2019-03-29T14:57:20.354Z,101882.39
2019-03-29T14:59:48.166Z,101884.33
2019-03-29T15:02:15.044Z,101872.02
2019-03-29T15:04:41.906Z,101863.20
2019-03-29T15:07:08.763Z,101872.72
2019-03-29T15:09:35.654Z,101877.26
2019-03-29T15:12:02.346Z,101868.95
2019-03-29T15:14:28.907Z,101875.14
2019-03-29T15:16:55.583Z,101870.52
2019-03-29T15:19:22.944Z,101875.13
2019-03-29T15:21:50.705Z,101865.09
2019-03-29T15:24:19.244Z,101865.55
2019-03-29T15:26:46.508Z,101860.89
2019-03-29T15:29:13.318Z,101874.70
2019-03-29T15:31:39.955Z,101879.98
2019-03-29T15:34:06.688Z,101868.20
2019-03-29T15:36:33.325Z,101865.13
2019-03-29T15:38:59.876Z,101868.34
2019-03-29T15:41:26.575Z,101866.68
2019-03-29T15:43:53.185Z,101867.50
2019-03-29T15:46:22.390Z,101865.47
2019-03-29T15:48:48.981Z,101871.55
2019-03-29T15:51:15.635Z,101871.44
2019-03-29T15:53:42.188Z,101861.50
2019-03-29T15:56:08.830Z,101863.44
2019-03-29T15:58:35.519Z,101863.77
2019-03-29T16:01:02.796Z,101863.38
2019-03-29T16:03:29.426Z,101860.45
2019-03-29T16:05:56.142Z,101867.67
2019-03-29T16:08:22.890Z,101864.74
2019-03-29T16:10:49.569Z,101855.19
2019-03-29T16:13:16.274Z,101858.48
2019-03-29T16:15:42.994Z,101863.33
2019-03-29T16:18:09.709Z,101863.42
2019-03-29T16:20:36.641Z,101861.87
2019-03-29T16:23:03.643Z,101857.71
2019-03-29T16:25:30.352Z,101858.61
2019-03-29T16:27:57.297Z,101856.31
2019-03-29T16:30:24.108Z,101855.41
2019-03-29T16:32:50.721Z,101855.92
2019-03-29T16:35:17.507Z,101855.96
2019-03-29T16:37:56.641Z,101855.27
2019-03-29T16:40:13.064Z,101852.81
2019-03-29T16:42:39.649Z,101850.65
2019-03-29T16:45:07.992Z,101849.70
2019-03-29T16:47:35.106Z,101852.29
2019-03-29T16:50:05.702Z,101851.16
2019-03-29T16:52:32.442Z,101857.57
2019-03-29T16:55:11.951Z,101851.30
2019-03-29T16:57:27.691Z,101849.88
2019-03-29T16:59:54.369Z,101844.47
2019-03-29T17:02:21.082Z,101841.88
2019-03-29T17:04:47.635Z,101834.48
2019-03-29T17:07:14.382Z,101837.67
2019-03-29T17:09:41.706Z,101833.39
2019-03-29T17:12:08.969Z,101825.71
2019-03-29T17:14:39.572Z,101818.82
2019-03-29T17:17:08.977Z,101819.28
2019-03-29T17:19:37.591Z,101825.71
2019-03-29T17:22:05.258Z,101821.59
2019-03-29T17:24:32.587Z,101824.14
2019-03-29T17:27:00.238Z,101823.55
2019-03-29T17:29:27.110Z,101813.28
2019-03-29T17:31:53.812Z,101816.03
2019-03-29T17:34:20.673Z,101814.44
2019-03-29T17:36:47.232Z,101822.39
2019-03-29T17:39:15.070Z,101817.97
2019-03-29T17:41:41.739Z,101814.27
2019-03-29T17:44:08.381Z,101820.86
2019-03-29T17:46:35.557Z,101820.30
2019-03-29T17:49:02.399Z,101810.86
2019-03-29T17:51:29.200Z,101824.34
2019-03-29T17:53:56.471Z,101819.16
2019-03-29T17:56:23.155Z,101811.67
2019-03-29T17:58:49.936Z,101813.37
2019-03-29T18:01:17.141Z,101814.06
2019-03-29T18:03:44.023Z,101817.28
2019-03-29T18:06:11.082Z,101814.26
2019-03-29T18:08:38.848Z,101826.06
2019-03-29T18:11:05.447Z,101820.01
2019-03-29T18:13:32.393Z,101823.42
2019-03-29T18:15:59.098Z,101819.59
2019-03-29T18:18:26.419Z,101821.72
2019-03-29T18:20:53.651Z,101818.40
2019-03-29T18:23:20.377Z,101817.25
2019-03-29T18:25:47.140Z,101810.61
2019-03-29T18:28:14.252Z,101816.34
2019-03-29T18:30:41.869Z,101811.67
2019-03-29T18:33:12.736Z,101809.47
2019-03-29T18:35:40.117Z,101810.69
2019-03-29T18:38:07.730Z,101817.84
2019-03-29T18:40:35.017Z,101815.20
2019-03-29T18:43:02.045Z,101818.98
2019-03-29T18:45:28.847Z,101822.05
2019-03-29T18:47:55.458Z,101819.50
2019-03-29T18:50:22.200Z,101819.50
2019-03-29T18:52:49.148Z,101818.51
2019-03-29T18:55:15.998Z,101817.29
2019-03-29T18:57:42.586Z,101814.68
2019-03-29T19:00:12.818Z,101815.75
2019-03-29T19:02:40.119Z,101809.63
2019-03-29T19:05:12.662Z,101808.95
2019-03-29T19:07:39.594Z,101813.63
2019-03-29T19:10:06.866Z,101813.02
2019-03-29T19:12:33.883Z,101810.59
2019-03-29T19:15:01.281Z,101809.16
2019-03-29T19:17:29.394Z,101799.55
2019-03-29T19:19:56.584Z,101801.53
2019-03-29T19:23:19.541Z,101796.64
2019-03-29T19:25:46.135Z,101798.39
2019-03-29T19:28:12.938Z,101804.53
2019-03-29T19:30:58.350Z,101800.25
2019-03-29T19:33:25.289Z,101804.94
2019-03-29T19:35:52.262Z,101796.58
2019-03-29T19:38:18.867Z,101797.25
2019-03-29T19:40:46.763Z,101797.31
2019-03-29T19:43:13.613Z,101803.95
2019-03-29T19:45:40.297Z,101791.00
2019-03-29T19:48:08.818Z,101796.42
2019-03-29T19:50:35.703Z,101799.22
2019-03-29T19:53:02.655Z,101793.48
2019-03-29T19:55:29.229Z,101794.18
2019-03-29T19:57:55.965Z,101797.09
2019-03-29T20:00:29.271Z,101793.02
2019-03-29T20:02:56.127Z,101794.50
2019-03-29T20:05:26.308Z,101795.00
2019-03-29T20:07:55.694Z,101790.73
2019-03-29T20:10:24.651Z,101790.38
2019-03-29T20:12:51.872Z,101793.21
2019-03-29T20:15:18.856Z,101796.47
2019-03-29T20:17:45.497Z,101789.56
2019-03-29T20:20:17.827Z,101791.30
2019-03-29T20:22:45.523Z,101801.92
2019-03-29T20:25:12.308Z,101792.91
2019-03-29T20:27:38.935Z,101787.72
2019-03-29T20:30:06.407Z,101796.34
2019-03-29T20:32:36.449Z,101790.97
2019-03-29T20:35:04.959Z,101789.86
2019-03-29T20:37:33.751Z,101788.26
2019-03-29T20:40:00.584Z,101788.72
2019-03-29T20:42:29.638Z,101786.77
2019-03-29T20:44:56.700Z,101783.17
2019-03-29T20:47:23.408Z,101783.41
2019-03-29T20:49:50.046Z,101786.58
2019-03-29T20:52:16.603Z,101786.19
2019-03-29T20:54:43.186Z,101786.22
2019-03-29T20:57:09.789Z,101785.73
2019-03-29T20:59:36.519Z,101784.83
2019-03-29T21:02:06.249Z,101779.84
2019-03-29T21:04:33.274Z,101774.51
2019-03-29T21:07:00.134Z,101781.52
2019-03-29T21:09:26.733Z,101785.53
2019-03-29T21:11:53.460Z,101780.80
2019-03-29T21:14:20.311Z,101775.95
2019-03-29T21:16:47.352Z,101776.48
2019-03-29T21:19:14.263Z,101779.05
2019-03-29T21:21:41.090Z,101783.34
2019-03-29T21:24:07.721Z,101784.14
2019-03-29T21:26:34.545Z,101777.99
2019-03-29T21:29:01.606Z,101778.87
2019-03-29T21:31:28.354Z,101777.86
2019-03-29T21:33:54.966Z,101780.98
2019-03-29T21:36:21.523Z,101785.83
2019-03-29T21:38:48.110Z,101778.55
2019-03-29T21:41:14.890Z,101773.62
2019-03-29T21:43:41.458Z,101775.82
2019-03-29T21:46:08.118Z,101773.65
2019-03-29T21:48:34.813Z,101776.22
2019-03-29T21:51:01.396Z,101778.30
2019-03-29T21:53:29.308Z,101771.05
2019-03-29T21:55:56.032Z,101763.74
2019-03-29T21:58:22.863Z,101766.86
2019-03-29T22:00:49.447Z,101766.07
2019-03-29T22:03:16.196Z,101763.84
2019-03-29T22:05:42.867Z,101770.62
2019-03-29T22:08:09.769Z,101764.36
2019-03-29T22:10:36.627Z,101761.36
2019-03-29T22:13:03.555Z,101766.71
2019-03-29T22:15:31.628Z,101758.18
2019-03-29T22:17:58.506Z,101760.62
2019-03-29T22:20:25.382Z,101757.01
2019-03-29T22:22:51.999Z,101757.87
2019-03-29T22:25:18.798Z,101753.95
2019-03-29T22:27:45.608Z,101750.44
2019-03-29T22:30:13.120Z,101746.16
2019-03-29T22:32:39.819Z,101745.20
2019-03-29T22:35:06.976Z,101743.01
2019-03-29T22:37:34.015Z,101741.32
2019-03-29T22:40:00.859Z,101733.61
2019-03-29T22:42:27.859Z,101736.70
2019-03-29T22:44:54.404Z,101734.56
2019-03-29T22:47:21.030Z,101734.19
2019-03-29T22:49:47.871Z,101733.99
2019-03-29T22:52:14.424Z,101731.48
2019-03-29T22:54:41.345Z,101725.83
2019-03-29T22:57:08.239Z,101724.86
2019-03-29T22:59:35.089Z,101725.73
2019-03-29T23:02:02.197Z,101722.41
2019-03-29T23:04:28.775Z,101723.78
2019-03-29T23:06:55.368Z,101720.42
2019-03-29T23:09:21.963Z,101718.84
2019-03-29T23:11:48.650Z,101721.81
2019-03-29T23:14:15.333Z,101716.00
2019-03-29T23:16:44.708Z,101715.44
2019-03-29T23:19:13.220Z,101713.54
2019-03-29T23:21:39.871Z,101705.13
2019-03-29T23:24:06.432Z,101703.12
2019-03-29T23:26:34.243Z,101709.83
2019-03-29T23:29:00.937Z,101712.61
2019-03-29T23:31:27.547Z,101713.98
2019-03-29T23:33:54.205Z,101711.89
2019-03-29T23:36:21.033Z,101700.55
2019-03-29T23:38:47.634Z,101706.58
2019-03-29T23:41:14.278Z,101705.60
2019-03-29T23:43:40.931Z,101700.05
2019-03-29T23:46:07.562Z,101703.73
2019-03-29T23:48:34.132Z,101706.11
2019-03-29T23:51:00.713Z,101704.07
2019-03-29T23:53:27.503Z,101708.38
2019-03-29T23:55:54.324Z,101703.06
2019-03-29T23:58:23.392Z,101709.73
